Onweer radar Meer informatie blitzortung!


Regen radar Meer informatie rain snow radar



METAR rapporten vliegvelden

   
EHRD - Rotterdam
Gewijzigd: 26-01-2021 05:55
Grotendeels bewolkt  
Grotendeels bewolkt  
   Wind: Westen 14 km/h<br />Gust to 14 km/h
Wind: Westen 14 km/h
Gust to 14 km/h
Temperatuur: 5°C
Voelt als: 1°C
Dauwpunt: 2°C
Vochtigheid: 81%
Barometer: 1013 hPa
Bewolking: Mostly Cloudy
Zicht: meer dan 10 km
Bewolking: Licht bewolkt 1500 ft,
Gedeeltelijk bewolkt 1600 ft,
Grotendeels bewolkt 1900 ft,
Grotendeels bewolkt 2400 ft
EHRD 260455Z AUTO 28014G25KT 230V320 9999 FEW015CB SCT016 BKN019 BKN024 05/02 Q1013 TEMPO 31017G27KT 7000 SHRA SCT020CB
EBAW - Antwerpen
Gewijzigd: 26-01-2021 05:50
Grotendeels bewolkt  
Grotendeels bewolkt  
   Wind: Westen 12 km/h
Wind: Westen 12 km/h
Temperatuur: 4°C
Voelt als: -1°C
Dauwpunt: 1°C
Vochtigheid: 81%
Barometer: 1016 hPa
Bewolking: Mostly Cloudy
Zicht: meer dan 10 km
Bewolking: Gedeeltelijk bewolkt 2000 ft,
Grotendeels bewolkt 2400 ft,
Grotendeels bewolkt 3700 ft
EBAW 260450Z AUTO 28012KT 9999 // SCT020/// BKN024/// BKN037/// 04/01 Q1016
EHAM - Amsterdam
Gewijzigd: 26-01-2021 05:55
Light Showers, Regen, Gedeeltelijk bewolkt  
Light Showers, Regen, Gedeeltelijk bewolkt  
   Wind: NW 17 km/h
Wind: NW 17 km/h
Temperatuur: 5°C
Voelt als: 0°C
Dauwpunt: 2°C
Vochtigheid: 81%
Barometer: 1012 hPa
Bewolking: Partly Cloudy
Zicht: meer dan 10 km
Bewolking: Licht bewolkt 1500 ft,
Licht bewolkt 2000 ft,
Gedeeltelijk bewolkt 3000 ft
EHAM 260455Z 31017KT 280V350 9999 -SHRA FEW015 FEW020CB SCT030 05/02 Q1012 NOSIG
EHEH - Eindhoven
Gewijzigd: 26-01-2021 05:55
Bewolking  
Bewolking  
   Wind: Westen 11 km/h
Wind: Westen 11 km/h
Temperatuur: 4°C
Voelt als: 0°C
Dauwpunt: 2°C
Vochtigheid: 87%
Barometer: 1013 hPa
Bewolking: Overcast
Zicht: meer dan 10 km
Bewolking: Licht bewolkt 1500 ft,
Grotendeels bewolkt 1600 ft,
Bewolking 1900 ft
EHEH 260455Z AUTO 27011KT 230V300 9999 FEW015CB BKN016 OVC019 04/02 Q1013 WHT
  

Script ontwikkeld door  Saratoga-weather.org Aangepast voor de template door  Weerstation Leuven

U vindt ons ook hier:

Het Weer Aktueel

Apparatuur in gebruik:

Weerstation
Davis VP2

Weerprogramma
Cumulus

Weercomputer
Pipo X9 with Windows 10

Davis VP2

Cumulus

Pipo X9 with Windows 10